Time;durP1;ratioP1;P1;durP2;ratioP2;P2;SDS_P1;SDS_P2;PMS_P1;PMS_P2;Temp;Humidity;BMP_temperature;BMP_pressure;BME280_temperature;BME280_humidity;BME280_pressure;Samples;Min_cycle;Max_cycle;Signal;HPM_P1;HPM_P2
2023/04/23 00:00:13;;;;;;;4.97;4.43;;;;;;;;;;4993321;28;20245;-63
2023/04/23 00:02:42;;;;;;;4.50;4.20;;;;;;;;;;4992184;28;20206;-63
2023/04/23 00:05:12;;;;;;;3.70;3.40;;;;;;;;;;4992720;28;20632;-64
2023/04/23 00:07:40;;;;;;;5.10;4.60;;;;;;;;;;4991757;28;21114;-63
2023/04/23 00:10:11;;;;;;;5.85;4.28;;;;;;;;;;4994049;28;20202;-63
2023/04/23 00:12:39;;;;;;;4.80;4.33;;;;;;;;;;4992792;28;20211;-63
2023/04/23 00:15:08;;;;;;;5.47;4.95;;;;;;;;;;4997408;28;20599;-63
2023/04/23 00:17:36;;;;;;;5.03;4.63;;;;;;;;;;4992497;28;20213;-64
2023/04/23 00:20:05;;;;;;;5.90;5.40;;;;;;;;;;4993408;28;20408;-63
2023/04/23 00:22:33;;;;;;;6.80;5.10;;;;;;;;;;4992011;28;20654;-64
2023/04/23 00:25:02;;;;;;;5.30;4.90;;;;;;;;;;4993239;28;20660;-63
2023/04/23 00:27:31;;;;;;;6.05;5.45;;;;;;;;;;4992604;28;20621;-64
2023/04/23 00:30:00;;;;;;;5.33;4.83;;;;;;;;;;4992489;28;20691;-63
2023/04/23 00:32:32;;;;;;;6.28;5.38;;;;;;;;;;4996825;28;20684;-63
2023/04/23 00:35:00;;;;;;;7.50;5.85;;;;;;;;;;5012986;28;20217;-63
2023/04/23 00:37:28;;;;;;;5.97;5.45;;;;;;;;;;5011927;28;20201;-63
2023/04/23 00:39:57;;;;;;;6.28;4.93;;;;;;;;;;5012455;28;20213;-63
2023/04/23 00:42:27;;;;;;;6.10;5.55;;;;;;;;;;4999730;28;20203;-63
2023/04/23 00:44:56;;;;;;;10.53;6.07;;;;;;;;;;4992681;28;20636;-64
2023/04/23 00:47:25;;;;;;;7.38;6.32;;;;;;;;;;4992699;28;20590;-64
2023/04/23 00:49:54;;;;;;;5.67;5.17;;;;;;;;;;4993896;28;20198;-61
2023/04/23 00:52:23;;;;;;;6.25;5.40;;;;;;;;;;4994532;28;20665;-63
2023/04/23 00:54:52;;;;;;;6.88;6.00;;;;;;;;;;4990052;28;20202;-63
2023/04/23 00:57:20;;;;;;;6.55;5.95;;;;;;;;;;4990460;28;20203;-62
2023/04/23 00:59:49;;;;;;;6.53;5.82;;;;;;;;;;4992029;28;20232;-62
2023/04/23 01:02:20;;;;;;;5.93;5.47;;;;;;;;;;5023242;22;20336;-88
2023/04/23 01:04:50;;;;;;;5.97;5.57;;;;;;;;;;5019771;28;20695;-87
2023/04/23 01:07:19;;;;;;;5.80;5.20;;;;;;;;;;5020619;28;20657;-87
2023/04/23 01:09:47;;;;;;;7.25;5.85;;;;;;;;;;5020767;28;20698;-88
2023/04/23 01:12:16;;;;;;;5.87;5.23;;;;;;;;;;5020944;28;20265;-89
2023/04/23 01:14:46;;;;;;;5.93;5.43;;;;;;;;;;5021963;28;20664;-88
2023/04/23 01:17:15;;;;;;;6.37;5.73;;;;;;;;;;5020350;28;21177;-88
2023/04/23 01:19:45;;;;;;;6.33;5.73;;;;;;;;;;5016130;28;21108;-86
2023/04/23 01:22:15;;;;;;;6.30;5.75;;;;;;;;;;4983671;28;20675;-88
2023/04/23 01:24:43;;;;;;;6.90;6.27;;;;;;;;;;5001386;28;20247;-88
2023/04/23 01:27:12;;;;;;;6.32;5.78;;;;;;;;;;5001659;28;20713;-88
2023/04/23 01:29:41;;;;;;;6.03;5.32;;;;;;;;;;5000876;28;20294;-88
2023/04/23 01:32:09;;;;;;;5.80;5.35;;;;;;;;;;5001557;28;20615;-89
2023/04/23 01:34:40;;;;;;;6.30;5.47;;;;;;;;;;5005513;28;20313;-88
2023/04/23 01:37:10;;;;;;;6.70;5.30;;;;;;;;;;5021604;28;21315;-88
2023/04/23 01:39:39;;;;;;;6.27;5.60;;;;;;;;;;5008533;28;20690;-85
2023/04/23 01:42:08;;;;;;;6.23;5.63;;;;;;;;;;5007220;28;20687;-87
2023/04/23 01:44:36;;;;;;;5.50;5.00;;;;;;;;;;5003637;28;20714;-88
2023/04/23 01:47:05;;;;;;;5.95;5.30;;;;;;;;;;5005975;28;20289;-89
2023/04/23 01:49:33;;;;;;;6.00;5.43;;;;;;;;;;5005393;28;20298;-88
2023/04/23 01:52:02;;;;;;;6.22;5.82;;;;;;;;;;5005127;28;20706;-87
2023/04/23 01:54:31;;;;;;;6.07;5.45;;;;;;;;;;5009147;28;20332;-88
2023/04/23 01:57:01;;;;;;;4.80;4.50;;;;;;;;;;5038473;28;20237;-86
2023/04/23 01:59:30;;;;;;;5.35;4.93;;;;;;;;;;5038773;28;20763;-87
2023/04/23 02:01:58;;;;;;;5.93;5.43;;;;;;;;;;5037205;28;20240;-84
2023/04/23 02:04:26;;;;;;;4.90;4.50;;;;;;;;;;5023678;28;20262;-88
2023/04/23 02:06:55;;;;;;;6.10;5.03;;;;;;;;;;5024223;28;20300;-88
2023/04/23 02:09:25;;;;;;;6.00;5.40;;;;;;;;;;5023719;28;20754;-88
2023/04/23 02:11:53;;;;;;;5.65;4.53;;;;;;;;;;5023321;28;20676;-88
2023/04/23 02:14:23;;;;;;;11.53;5.63;;;;;;;;;;5016411;28;20819;-89
2023/04/23 02:16:51;;;;;;;5.50;5.13;;;;;;;;;;5022828;28;20732;-88
2023/04/23 02:19:21;;;;;;;6.00;5.60;;;;;;;;;;5022299;28;20671;-87
2023/04/23 02:21:50;;;;;;;6.17;5.70;;;;;;;;;;5023128;28;20250;-88
2023/04/23 02:24:18;;;;;;;6.60;6.00;;;;;;;;;;5022237;28;20702;-88
2023/04/23 02:26:47;;;;;;;6.72;5.93;;;;;;;;;;5007150;28;20731;-89
2023/04/23 02:29:17;;;;;;;6.93;6.05;;;;;;;;;;5024434;28;20205;-88
2023/04/23 02:31:47;;;;;;;8.80;7.38;;;;;;;;;;5020823;28;20256;-88
2023/04/23 02:34:15;;;;;;;9.00;8.23;;;;;;;;;;4994994;28;20309;-87
2023/04/23 02:36:43;;;;;;;9.65;8.75;;;;;;;;;;5001676;28;20289;-89
2023/04/23 02:39:11;;;;;;;8.68;7.93;;;;;;;;;;5021357;28;21368;-88
2023/04/23 02:41:40;;;;;;;9.23;8.30;;;;;;;;;;5003563;28;20709;-88
2023/04/23 02:44:08;;;;;;;8.60;7.70;;;;;;;;;;5020830;28;20304;-88
2023/04/23 02:46:37;;;;;;;9.85;7.97;;;;;;;;;;5017163;28;20256;-88
2023/04/23 02:49:06;;;;;;;10.18;9.00;;;;;;;;;;5018868;28;20267;-88
2023/04/23 02:51:35;;;;;;;12.35;9.55;;;;;;;;;;5012445;28;20229;-88
2023/04/23 02:54:03;;;;;;;9.65;8.65;;;;;;;;;;4998802;28;20229;-86
2023/04/23 02:56:31;;;;;;;10.77;8.25;;;;;;;;;;5010832;28;20260;-88
2023/04/23 02:59:00;;;;;;;11.27;9.60;;;;;;;;;;5017818;28;20205;-90
2023/04/23 03:01:28;;;;;;;11.00;9.85;;;;;;;;;;5017895;28;20360;-90
2023/04/23 03:03:57;;;;;;;12.68;10.40;;;;;;;;;;5018344;28;20258;-90
2023/04/23 03:06:27;;;;;;;11.18;8.93;;;;;;;;;;5018367;28;20257;-90
2023/04/23 03:08:55;;;;;;;11.77;10.15;;;;;;;;;;5003469;28;20209;-90
2023/04/23 03:11:24;;;;;;;11.47;10.37;;;;;;;;;;5001901;28;20206;-90
2023/04/23 03:13:52;;;;;;;13.85;10.25;;;;;;;;;;4998969;28;20707;-86
2023/04/23 03:16:21;;;;;;;12.27;10.88;;;;;;;;;;5000208;28;20289;-87
2023/04/23 03:18:49;;;;;;;12.05;10.85;;;;;;;;;;5001355;28;20348;-89
2023/04/23 03:21:18;;;;;;;12.25;10.55;;;;;;;;;;4999858;28;20338;-88
2023/04/23 03:23:47;;;;;;;10.40;9.27;;;;;;;;;;4998686;28;20262;-89
2023/04/23 03:26:15;;;;;;;13.77;11.23;;;;;;;;;;4998586;28;20276;-89
2023/04/23 03:28:44;;;;;;;11.35;10.15;;;;;;;;;;4999643;28;20267;-88
2023/04/23 03:31:12;;;;;;;14.60;9.93;;;;;;;;;;4998724;28;20746;-89
2023/04/23 03:33:41;;;;;;;10.27;9.38;;;;;;;;;;4999550;28;20316;-88
2023/04/23 03:36:09;;;;;;;9.55;8.65;;;;;;;;;;4999914;28;20290;-89
2023/04/23 03:38:37;;;;;;;9.80;8.88;;;;;;;;;;5002277;28;20283;-89
2023/04/23 03:41:07;;;;;;;9.93;8.90;;;;;;;;;;5001386;28;20315;-90
2023/04/23 03:43:36;;;;;;;10.13;9.23;;;;;;;;;;5001802;28;20357;-89
2023/04/23 03:46:05;;;;;;;10.52;9.57;;;;;;;;;;5001710;28;20282;-89
2023/04/23 03:48:37;;;;;;;9.32;8.43;;;;;;;;;;5000346;28;20242;-89
2023/04/23 03:51:10;;;;;;;9.38;8.65;;;;;;;;;;5002496;28;20254;-89
2023/04/23 03:53:45;;;;;;;8.55;7.68;;;;;;;;;;5016366;28;20265;-88
2023/04/23 03:56:35;;;;;;;9.32;8.52;;;;;;;;;;5012125;28;20265;-89
2023/04/23 03:59:23;;;;;;;9.90;9.05;;;;;;;;;;5006308;28;20273;-88
2023/04/23 04:01:53;;;;;;;12.95;8.50;;;;;;;;;;5018048;28;20309;-89
2023/04/23 04:04:22;;;;;;;9.60;8.65;;;;;;;;;;5018565;28;20286;-86
2023/04/23 04:06:52;;;;;;;9.30;8.40;;;;;;;;;;5018674;28;20205;-85
2023/04/23 04:09:20;;;;;;;8.15;7.40;;;;;;;;;;5019091;28;20277;-89
2023/04/23 04:11:50;;;;;;;7.53;6.93;;;;;;;;;;5013113;28;20258;-90
2023/04/23 04:14:18;;;;;;;7.65;6.85;;;;;;;;;;5000174;28;20298;-89
2023/04/23 04:16:48;;;;;;;7.82;7.10;;;;;;;;;;5000235;28;20294;-89
2023/04/23 04:19:16;;;;;;;6.85;6.20;;;;;;;;;;4998660;28;20674;-90
2023/04/23 04:21:45;;;;;;;9.00;6.70;;;;;;;;;;4998702;28;20246;-89
2023/04/23 04:24:14;;;;;;;6.60;6.10;;;;;;;;;;4999539;28;20242;-89
2023/04/23 04:26:43;;;;;;;6.93;6.35;;;;;;;;;;5000670;28;20284;-90
2023/04/23 04:29:12;;;;;;;6.38;5.88;;;;;;;;;;5004388;28;20207;-90
2023/04/23 04:31:41;;;;;;;5.97;5.45;;;;;;;;;;4998045;28;20281;-88
2023/04/23 04:34:09;;;;;;;6.15;5.65;;;;;;;;;;4998833;28;20233;-89
2023/04/23 04:36:37;;;;;;;6.57;5.95;;;;;;;;;;4997783;28;20262;-89
2023/04/23 04:39:06;;;;;;;6.40;5.80;;;;;;;;;;5009843;28;20277;-89
2023/04/23 04:41:35;;;;;;;6.78;6.20;;;;;;;;;;5017446;28;20241;-89
2023/04/23 04:44:03;;;;;;;7.60;6.35;;;;;;;;;;5001007;28;21476;-89
2023/04/23 04:46:33;;;;;;;6.22;5.65;;;;;;;;;;4990177;28;20281;-87
2023/04/23 04:49:02;;;;;;;6.40;5.90;;;;;;;;;;5000687;28;20204;-88
2023/04/23 04:51:31;;;;;;;6.45;5.97;;;;;;;;;;5016593;28;20280;-89
2023/04/23 04:53:59;;;;;;;6.93;6.20;;;;;;;;;;5016401;28;20225;-89
2023/04/23 04:56:27;;;;;;;6.95;5.60;;;;;;;;;;5000424;28;20258;-89
2023/04/23 04:58:56;;;;;;;5.93;5.38;;;;;;;;;;4998657;28;20345;-88
2023/04/23 05:01:25;;;;;;;6.65;6.10;;;;;;;;;;5018507;28;20372;-88
2023/04/23 05:03:55;;;;;;;5.93;5.43;;;;;;;;;;5022080;28;20214;-91
2023/04/23 05:06:24;;;;;;;6.38;5.78;;;;;;;;;;5028358;28;20221;-89
2023/04/23 05:08:52;;;;;;;5.53;5.13;;;;;;;;;;5019960;28;20218;-89
2023/04/23 05:11:21;;;;;;;6.30;5.70;;;;;;;;;;5026493;28;20209;-90
2023/04/23 05:13:49;;;;;;;7.82;5.60;;;;;;;;;;5013542;28;20678;-91
2023/04/23 05:16:18;;;;;;;5.78;5.25;;;;;;;;;;5030248;28;20213;-90
2023/04/23 05:18:46;;;;;;;6.10;5.32;;;;;;;;;;5028489;28;20401;-89
2023/04/23 05:21:16;;;;;;;5.93;5.53;;;;;;;;;;5022262;28;20294;-91
2023/04/23 05:23:44;;;;;;;5.60;5.20;;;;;;;;;;5023170;28;20222;-90
2023/04/23 05:26:12;;;;;;;6.55;5.95;;;;;;;;;;5024700;28;20237;-90
2023/04/23 05:28:41;;;;;;;5.88;5.35;;;;;;;;;;5027830;28;20277;-89
2023/04/23 05:31:09;;;;;;;5.05;4.65;;;;;;;;;;5024529;28;20254;-88
2023/04/23 05:33:37;;;;;;;5.20;4.70;;;;;;;;;;5031657;28;20229;-90
2023/04/23 05:36:07;;;;;;;5.45;4.95;;;;;;;;;;5017137;28;20232;-89
2023/04/23 05:38:36;;;;;;;5.45;5.05;;;;;;;;;;5034978;28;20226;-89
2023/04/23 05:41:05;;;;;;;5.60;5.10;;;;;;;;;;5031153;28;20217;-90
2023/04/23 05:43:33;;;;;;;5.43;5.03;;;;;;;;;;5027442;28;20221;-89
2023/04/23 05:46:07;;;;;;;5.05;4.75;;;;;;;;;;5032660;28;20210;-89
2023/04/23 05:48:35;;;;;;;5.20;4.78;;;;;;;;;;5032829;28;20213;-90
2023/04/23 05:51:04;;;;;;;6.53;5.25;;;;;;;;;;5028444;28;20214;-89
2023/04/23 06:02:42;;;;;;;5.35;4.95;;;;;;;;;;5075446;23;20220;-86
2023/04/23 06:05:10;;;;;;;6.60;4.80;;;;;;;;;;4939629;29;20212;-87
2023/04/23 06:07:40;;;;;;;5.25;4.75;;;;;;;;;;4956507;29;20232;-89
2023/04/23 06:10:08;;;;;;;5.28;4.88;;;;;;;;;;4942313;29;20276;-90
2023/04/23 06:12:38;;;;;;;5.28;4.88;;;;;;;;;;4955610;29;20236;-89
2023/04/23 06:15:08;;;;;;;7.55;6.95;;;;;;;;;;4954494;29;20244;-89
2023/04/23 06:17:36;;;;;;;6.60;6.00;;;;;;;;;;4933425;29;20260;-89
2023/04/23 06:20:07;;;;;;;7.05;6.35;;;;;;;;;;4955747;29;20233;-88
2023/04/23 06:22:42;;;;;;;7.23;6.63;;;;;;;;;;4954528;29;20269;-89
2023/04/23 06:25:10;;;;;;;7.20;6.50;;;;;;;;;;4955360;29;20708;-90
2023/04/23 06:27:38;;;;;;;6.97;6.30;;;;;;;;;;4937641;29;20243;-90
2023/04/23 06:30:14;;;;;;;6.82;6.32;;;;;;;;;;4953933;29;20640;-90
2023/04/23 06:32:42;;;;;;;6.77;5.90;;;;;;;;;;4932304;29;20264;-87
2023/04/23 06:35:12;;;;;;;7.67;6.90;;;;;;;;;;4942846;29;20701;-91
2023/04/23 06:37:40;;;;;;;7.00;6.33;;;;;;;;;;4928969;29;20700;-89
2023/04/23 06:40:08;;;;;;;8.13;7.33;;;;;;;;;;4934342;29;20700;-90
2023/04/23 06:42:38;;;;;;;7.40;6.83;;;;;;;;;;4938692;29;20718;-89
2023/04/23 06:45:20;;;;;;;8.30;7.60;;;;;;;;;;4953251;29;20684;-89
2023/04/23 06:47:49;;;;;;;10.60;9.55;;;;;;;;;;4902303;29;21112;-90
2023/04/23 06:50:19;;;;;;;10.30;9.30;;;;;;;;;;4919197;29;20685;-89
2023/04/23 06:52:48;;;;;;;8.32;7.63;;;;;;;;;;4937125;29;20627;-90
2023/04/23 06:55:17;;;;;;;9.18;8.13;;;;;;;;;;4939854;29;20251;-90
2023/04/23 06:57:45;;;;;;;9.43;8.70;;;;;;;;;;4955176;29;20204;-90
2023/04/23 07:00:14;;;;;;;10.10;9.10;;;;;;;;;;4919675;29;21154;-90
2023/04/23 07:02:44;;;;;;;8.83;8.10;;;;;;;;;;4918524;29;20642;-89
2023/04/23 07:05:13;;;;;;;9.43;8.07;;;;;;;;;;4955916;28;20611;-91
2023/04/23 07:07:42;;;;;;;7.78;7.13;;;;;;;;;;4922117;29;20648;-89
2023/04/23 07:12:55;;;;;;;8.37;6.93;;;;;;;;;;4900200;29;20674;-91
2023/04/23 07:15:23;;;;;;;7.70;7.00;;;;;;;;;;4913070;29;20678;-87
2023/04/23 07:17:51;;;;;;;8.57;7.77;;;;;;;;;;5162566;23;20671;-86
2023/04/23 07:20:20;;;;;;;7.93;7.33;;;;;;;;;;4934978;29;20596;-90
2023/04/23 07:22:49;;;;;;;7.20;6.60;;;;;;;;;;4929805;29;20716;-91
2023/04/23 07:25:17;;;;;;;7.40;6.70;;;;;;;;;;4929565;29;20639;-88
2023/04/23 07:27:45;;;;;;;7.67;7.00;;;;;;;;;;4929869;29;20632;-87
2023/04/23 07:30:15;;;;;;;7.23;6.30;;;;;;;;;;4938827;29;20669;-90
2023/04/23 07:32:51;;;;;;;6.80;6.30;;;;;;;;;;5422669;23;20701;31
2023/04/23 07:35:19;;;;;;;7.03;6.50;;;;;;;;;;4896237;29;20683;-87
2023/04/23 07:37:52;;;;;;;7.40;6.80;;;;;;;;;;4903069;29;20644;-87
2023/04/23 08:01:37;;;;;;;5.93;5.43;;;;;;;;;;5128013;23;20659;-89
2023/04/23 08:04:06;;;;;;;4.40;4.10;;;;;;;;;;5453088;23;20684;-88
2023/04/23 08:06:38;;;;;;;4.80;4.30;;;;;;;;;;5081913;23;21635;-86
2023/04/23 08:09:09;;;;;;;5.20;4.20;;;;;;;;;;4975245;28;20615;-88
2023/04/23 08:11:43;;;;;;;4.57;4.27;;;;;;;;;;5680807;23;21396;-87
2023/04/23 08:14:11;;;;;;;4.90;4.00;;;;;;;;;;5326156;23;20775;-87
2023/04/23 08:16:40;;;;;;;3.90;3.70;;;;;;;;;;5146603;23;20644;-90
2023/04/23 08:19:09;;;;;;;3.67;3.47;;;;;;;;;;4934704;29;20656;-91
2023/04/23 08:21:37;;;;;;;4.70;4.07;;;;;;;;;;4955436;29;20655;-88
2023/04/23 08:24:06;;;;;;;3.93;3.53;;;;;;;;;;4951869;29;20652;-89
2023/04/23 08:26:35;;;;;;;4.70;4.40;;;;;;;;;;4950250;29;21187;-87
2023/04/23 08:29:04;;;;;;;4.10;3.80;;;;;;;;;;4950424;29;20648;-89
2023/04/23 08:31:32;;;;;;;5.87;4.23;;;;;;;;;;4941087;29;20689;-87
2023/04/23 08:34:02;;;;;;;5.93;3.63;;;;;;;;;;4932700;29;20641;-88
2023/04/23 08:36:32;;;;;;;7.17;4.00;;;;;;;;;;4944126;29;20777;-86
2023/04/23 08:39:02;;;;;;;4.30;3.90;;;;;;;;;;4948592;23;20877;-69
2023/04/23 08:41:34;;;;;;;4.23;3.93;;;;;;;;;;4962494;28;20259;-67
2023/04/23 08:44:06;;;;;;;4.63;3.30;;;;;;;;;;4964643;29;21040;-69
2023/04/23 08:46:36;;;;;;;3.63;3.33;;;;;;;;;;4958760;29;20695;-68
2023/04/23 08:49:08;;;;;;;3.87;3.57;;;;;;;;;;4954758;29;20690;-67
2023/04/23 08:51:38;;;;;;;3.23;3.07;;;;;;;;;;4954414;29;20606;-67
2023/04/23 08:54:08;;;;;;;3.37;3.13;;;;;;;;;;4939619;29;20702;-67
2023/04/23 08:56:37;;;;;;;3.60;3.30;;;;;;;;;;4978910;23;20752;-65
2023/04/23 08:59:06;;;;;;;3.83;3.37;;;;;;;;;;5075548;23;20691;-87
2023/04/23 09:01:35;;;;;;;3.17;2.97;;;;;;;;;;5098589;23;21122;-87
2023/04/23 09:04:03;;;;;;;3.47;3.27;;;;;;;;;;4949027;29;20693;-88
2023/04/23 09:06:33;;;;;;;4.90;3.50;;;;;;;;;;4929575;29;20676;-89
2023/04/23 09:09:02;;;;;;;3.50;3.27;;;;;;;;;;4942790;29;20688;-87
2023/04/23 09:11:30;;;;;;;3.97;3.57;;;;;;;;;;4946475;29;20647;-90
2023/04/23 09:13:59;;;;;;;6.33;3.67;;;;;;;;;;4941642;29;20683;-88
2023/04/23 09:16:27;;;;;;;4.93;3.13;;;;;;;;;;4943878;29;20750;-87
2023/04/23 09:18:55;;;;;;;4.43;3.40;;;;;;;;;;4926818;29;20703;-90
2023/04/23 09:21:24;;;;;;;3.40;3.17;;;;;;;;;;4946451;29;20648;-89
2023/04/23 09:23:56;;;;;;;3.50;3.30;;;;;;;;;;4950004;29;20719;-88
2023/04/23 09:26:24;;;;;;;3.53;3.23;;;;;;;;;;4966245;29;20720;-90
2023/04/23 09:28:55;;;;;;;5.60;3.87;;;;;;;;;;4965562;29;20691;-85
2023/04/23 09:31:23;;;;;;;3.10;3.00;;;;;;;;;;4965675;29;20706;-90
2023/04/23 09:33:53;;;;;;;3.20;3.00;;;;;;;;;;4966230;29;20734;-85
2023/04/23 09:36:22;;;;;;;3.50;3.30;;;;;;;;;;4967919;28;20810;-89
2023/04/23 09:38:50;;;;;;;3.63;3.33;;;;;;;;;;4971127;28;20623;-93
2023/04/23 09:41:30;;;;;;;3.73;3.43;;;;;;;;;;4972296;28;20588;-88
2023/04/23 09:43:59;;;;;;;3.83;3.33;;;;;;;;;;4971482;29;20639;-90
2023/04/23 09:46:34;;;;;;;3.23;3.03;;;;;;;;;;4973064;28;20664;-90
2023/04/23 09:49:04;;;;;;;4.43;4.13;;;;;;;;;;4998571;23;20697;-89
2023/04/23 09:51:33;;;;;;;3.47;3.27;;;;;;;;;;4992657;28;20665;-91
2023/04/23 09:54:03;;;;;;;3.80;3.50;;;;;;;;;;4995268;28;20641;-86
2023/04/23 09:59:36;;;;;;;4.10;3.80;;;;;;;;;;4958614;29;20648;-67
2023/04/23 10:02:06;;;;;;;3.20;3.10;;;;;;;;;;4959052;29;20651;-67
2023/04/23 10:04:35;;;;;;;4.13;3.93;;;;;;;;;;4956751;29;20672;-67
2023/04/23 10:07:05;;;;;;;3.80;3.50;;;;;;;;;;5011902;23;20688;-89
2023/04/23 10:09:33;;;;;;;4.27;4.03;;;;;;;;;;5157127;23;21157;-68
2023/04/23 10:12:03;;;;;;;4.37;4.07;;;;;;;;;;4978570;28;20772;-67
2023/04/23 10:14:31;;;;;;;3.40;3.30;;;;;;;;;;4974907;28;20703;-67
2023/04/23 10:17:00;;;;;;;6.20;4.30;;;;;;;;;;4982830;28;20760;-65
2023/04/23 10:19:29;;;;;;;4.30;4.10;;;;;;;;;;4981691;28;21272;-65
2023/04/23 10:22:00;;;;;;;4.77;4.57;;;;;;;;;;4948894;28;21124;-66
2023/04/23 10:24:30;;;;;;;4.50;4.20;;;;;;;;;;4962827;29;20666;-66
2023/04/23 10:26:59;;;;;;;4.70;4.43;;;;;;;;;;4963587;28;20703;-66
2023/04/23 10:29:30;;;;;;;4.60;4.37;;;;;;;;;;4957600;28;21229;-68
2023/04/23 10:35:02;;;;;;;6.63;5.67;;;;;;;;;;5202343;23;20675;-91
2023/04/23 10:37:31;;;;;;;5.07;4.67;;;;;;;;;;4942277;28;20646;-88
2023/04/23 10:40:02;;;;;;;5.03;4.80;;;;;;;;;;4990196;28;20650;-88
2023/04/23 10:42:30;;;;;;;5.60;5.20;;;;;;;;;;4985125;28;21228;-87
2023/04/23 10:45:01;;;;;;;4.80;4.60;;;;;;;;;;4936934;29;20726;-87
2023/04/23 10:47:29;;;;;;;5.13;4.93;;;;;;;;;;4949518;29;20718;-87
2023/04/23 10:49:57;;;;;;;5.40;5.13;;;;;;;;;;4962605;29;20711;-87
2023/04/23 10:52:26;;;;;;;6.07;5.67;;;;;;;;;;4947297;29;20746;-87
2023/04/23 10:54:58;;;;;;;5.07;4.80;;;;;;;;;;4931858;29;20711;-87
2023/04/23 10:57:26;;;;;;;5.50;5.20;;;;;;;;;;4963937;28;20766;-87
2023/04/23 10:59:57;;;;;;;5.43;5.10;;;;;;;;;;4963968;29;20711;-87
2023/04/23 11:02:27;;;;;;;5.10;4.90;;;;;;;;;;4963596;29;20712;-87
2023/04/23 11:05:00;;;;;;;5.53;5.33;;;;;;;;;;4963109;29;21253;-86
2023/04/23 11:07:33;;;;;;;5.80;5.40;;;;;;;;;;4927617;29;20604;-86
2023/04/23 11:10:11;;;;;;;5.13;4.90;;;;;;;;;;4949965;29;20695;-88
2023/04/23 11:12:41;;;;;;;5.60;5.17;;;;;;;;;;5174313;23;20706;-86
2023/04/23 11:15:13;;;;;;;5.40;5.20;;;;;;;;;;5229023;23;20709;-85
2023/04/23 11:18:06;;;;;;;6.17;5.87;;;;;;;;;;5861922;23;20715;-85
2023/04/23 11:20:36;;;;;;;6.60;6.30;;;;;;;;;;4384742;23;20651;-88
2023/04/23 11:23:07;;;;;;;6.73;6.43;;;;;;;;;;5346836;23;20687;-86
2023/04/23 11:25:39;;;;;;;6.13;5.93;;;;;;;;;;5040893;23;20760;-87
2023/04/23 11:31:05;;;;;;;7.27;6.77;;;;;;;;;;5274823;23;20716;-87
2023/04/23 11:36:31;;;;;;;7.17;6.67;;;;;;;;;;5411620;23;20675;-85
2023/04/23 11:39:01;;;;;;;6.40;6.20;;;;;;;;;;4971646;28;20714;-87
2023/04/23 11:41:30;;;;;;;7.03;6.63;;;;;;;;;;4978590;28;20642;-86
2023/04/23 11:44:00;;;;;;;7.23;7.03;;;;;;;;;;4952795;29;20678;-88
2023/04/23 11:46:30;;;;;;;7.13;6.90;;;;;;;;;;4973368;28;21224;-91
2023/04/23 11:49:00;;;;;;;7.17;6.87;;;;;;;;;;4953752;29;20688;-88
2023/04/23 11:51:29;;;;;;;8.53;8.03;;;;;;;;;;4955658;29;20727;-91
2023/04/23 11:54:04;;;;;;;7.00;6.80;;;;;;;;;;4925533;29;20672;-90
2023/04/23 11:56:34;;;;;;;7.40;7.10;;;;;;;;;;4983274;23;20719;-89
2023/04/23 11:59:03;;;;;;;7.90;7.60;;;;;;;;;;4971718;28;21132;-87
2023/04/23 12:01:44;;;;;;;8.07;7.40;;;;;;;;;;5112199;23;1111774;-91
2023/04/23 12:04:13;;;;;;;7.10;6.90;;;;;;;;;;4944216;29;20288;-88
2023/04/23 12:06:43;;;;;;;7.60;7.30;;;;;;;;;;4906711;29;20748;-87
2023/04/23 12:09:13;;;;;;;8.30;7.80;;;;;;;;;;4948624;29;20692;-88
2023/04/23 12:11:42;;;;;;;7.73;7.43;;;;;;;;;;4931870;29;20625;-87
2023/04/23 12:14:11;;;;;;;8.07;7.80;;;;;;;;;;4948460;29;20668;-87
2023/04/23 12:16:40;;;;;;;8.23;7.93;;;;;;;;;;4944602;29;20711;-86
2023/04/23 12:19:09;;;;;;;9.03;8.63;;;;;;;;;;4940171;29;20668;-86
2023/04/23 12:21:48;;;;;;;8.10;7.80;;;;;;;;;;4942703;29;20719;-85
2023/04/23 12:24:17;;;;;;;8.10;7.80;;;;;;;;;;4947521;29;20728;-85
2023/04/23 12:26:47;;;;;;;7.50;7.00;;;;;;;;;;4945095;29;20727;-88
2023/04/23 12:29:15;;;;;;;7.73;7.43;;;;;;;;;;4946187;29;20719;-89
2023/04/23 12:31:44;;;;;;;7.60;7.40;;;;;;;;;;4943649;29;20700;-89
2023/04/23 12:34:13;;;;;;;7.87;7.50;;;;;;;;;;4927149;29;20720;-87
2023/04/23 12:36:44;;;;;;;7.30;7.07;;;;;;;;;;4944337;29;21421;-87
2023/04/23 12:39:24;;;;;;;8.20;7.80;;;;;;;;;;4935494;29;20677;-86
2023/04/23 12:41:53;;;;;;;10.50;9.50;;;;;;;;;;4949266;29;20620;-85
2023/04/23 12:44:22;;;;;;;7.90;7.70;;;;;;;;;;4941744;29;20659;-86
2023/04/23 12:46:55;;;;;;;8.20;7.90;;;;;;;;;;4921719;29;20668;-90
2023/04/23 12:49:23;;;;;;;8.70;8.30;;;;;;;;;;4948120;29;21151;-91
2023/04/23 12:51:56;;;;;;;7.87;7.47;;;;;;;;;;4934242;29;20652;-86
2023/04/23 12:54:26;;;;;;;7.70;7.40;;;;;;;;;;4927631;29;20707;-88
2023/04/23 12:56:54;;;;;;;8.27;7.90;;;;;;;;;;4925310;29;20744;-88
2023/04/23 12:59:23;;;;;;;8.00;7.80;;;;;;;;;;4917133;29;20706;-87
2023/04/23 13:01:52;;;;;;;7.20;7.00;;;;;;;;;;4895423;29;20777;-87
2023/04/23 13:04:23;;;;;;;7.37;7.17;;;;;;;;;;4924152;29;20726;-87
2023/04/23 13:06:51;;;;;;;7.97;7.77;;;;;;;;;;4924450;29;20736;-87
2023/04/23 13:09:20;;;;;;;7.00;6.80;;;;;;;;;;5251433;23;20781;-89
2023/04/23 13:20:33;;;;;;;7.50;7.30;;;;;;;;;;3368635;23;20735;-89
2023/04/23 13:23:02;;;;;;;7.53;7.33;;;;;;;;;;4984335;28;20642;-88
2023/04/23 13:25:30;;;;;;;8.23;7.40;;;;;;;;;;4981490;28;20713;-90
2023/04/23 13:27:59;;;;;;;8.00;7.20;;;;;;;;;;4965341;28;20793;-90
2023/04/23 13:30:27;;;;;;;7.53;7.33;;;;;;;;;;4967141;28;20594;-89
2023/04/23 13:32:57;;;;;;;8.00;7.60;;;;;;;;;;4954576;28;20659;-89
2023/04/23 13:35:27;;;;;;;8.00;7.60;;;;;;;;;;4987145;28;20658;-90
2023/04/23 13:37:57;;;;;;;7.30;7.10;;;;;;;;;;4985815;28;20745;-88
2023/04/23 13:40:25;;;;;;;7.17;6.97;;;;;;;;;;4967655;28;20857;-89
2023/04/23 13:42:53;;;;;;;7.17;6.97;;;;;;;;;;4969495;28;20726;-86
2023/04/23 13:45:22;;;;;;;6.97;6.77;;;;;;;;;;4968713;28;20738;-87
2023/04/23 13:47:50;;;;;;;7.13;6.93;;;;;;;;;;4986279;28;20785;-89
2023/04/23 13:50:19;;;;;;;6.73;6.43;;;;;;;;;;4984705;28;20796;-91
2023/04/23 13:52:48;;;;;;;7.13;6.93;;;;;;;;;;4968146;28;20693;-89
2023/04/23 13:55:20;;;;;;;7.23;6.83;;;;;;;;;;4954116;28;20601;-89
2023/04/23 13:57:49;;;;;;;6.80;6.60;;;;;;;;;;4968990;28;20697;-89
2023/04/23 14:00:18;;;;;;;6.90;6.60;;;;;;;;;;4969326;28;20683;-90
2023/04/23 14:02:46;;;;;;;6.60;6.40;;;;;;;;;;4967840;28;20818;-89
2023/04/23 14:05:15;;;;;;;6.83;6.60;;;;;;;;;;4984749;28;20689;-90
2023/04/23 14:07:43;;;;;;;7.00;6.53;;;;;;;;;;4968139;28;20717;-90
2023/04/23 14:10:12;;;;;;;6.83;6.63;;;;;;;;;;4967797;28;21339;-90
2023/04/23 14:12:45;;;;;;;6.97;6.77;;;;;;;;;;4953189;28;20714;-90
2023/04/23 14:15:14;;;;;;;6.97;6.43;;;;;;;;;;4952849;28;20689;-91
2023/04/23 14:17:43;;;;;;;6.97;6.77;;;;;;;;;;4984500;28;20718;-88
2023/04/23 14:20:11;;;;;;;7.70;7.10;;;;;;;;;;4966962;28;21099;-90
2023/04/23 14:22:40;;;;;;;6.60;6.40;;;;;;;;;;4968401;28;20674;-89
2023/04/23 14:25:24;;;;;;;7.03;6.73;;;;;;;;;;4967820;28;20670;-88
2023/04/23 14:27:56;;;;;;;7.27;6.97;;;;;;;;;;4967946;28;20674;-88
2023/04/23 14:30:28;;;;;;;6.73;6.43;;;;;;;;;;4988372;28;20614;-89
2023/04/23 14:32:56;;;;;;;6.40;6.20;;;;;;;;;;4987441;28;20678;-89
2023/04/23 14:35:25;;;;;;;6.80;6.50;;;;;;;;;;4987979;28;20717;-90
2023/04/23 14:37:53;;;;;;;6.67;6.47;;;;;;;;;;4953817;28;20765;-87
2023/04/23 14:40:22;;;;;;;7.17;6.77;;;;;;;;;;4953872;28;20575;-87
2023/04/23 14:42:51;;;;;;;6.30;6.10;;;;;;;;;;4970367;28;20687;-88
2023/04/23 14:45:21;;;;;;;6.20;6.00;;;;;;;;;;4987464;28;20714;-90
2023/04/23 14:47:49;;;;;;;5.80;5.70;;;;;;;;;;4988068;28;20674;-89
2023/04/23 14:50:18;;;;;;;6.40;6.20;;;;;;;;;;4969298;28;20710;-90
2023/04/23 14:52:48;;;;;;;6.93;6.63;;;;;;;;;;4972064;28;20695;-90
2023/04/23 14:55:18;;;;;;;6.40;6.10;;;;;;;;;;4955975;28;20579;-90
2023/04/23 14:57:46;;;;;;;6.43;6.23;;;;;;;;;;4972071;28;20725;-90
2023/04/23 15:00:15;;;;;;;6.10;5.90;;;;;;;;;;4971988;28;20613;-89
2023/04/23 15:02:45;;;;;;;6.83;6.33;;;;;;;;;;4987009;28;21045;-90
2023/04/23 15:05:14;;;;;;;6.03;5.80;;;;;;;;;;4970067;28;20690;-89
2023/04/23 15:07:43;;;;;;;6.00;5.90;;;;;;;;;;4953320;28;21284;-89
2023/04/23 15:10:15;;;;;;;6.33;6.03;;;;;;;;;;4954761;28;20749;-90
2023/04/23 15:12:49;;;;;;;5.93;5.73;;;;;;;;;;4987736;28;20653;-90
2023/04/23 15:15:27;;;;;;;6.63;6.43;;;;;;;;;;4971400;28;21053;-91
2023/04/23 15:17:59;;;;;;;6.27;6.10;;;;;;;;;;4970033;28;20729;-90
2023/04/23 15:20:34;;;;;;;6.53;6.33;;;;;;;;;;4968090;28;20741;-88
2023/04/23 15:23:07;;;;;;;7.30;6.90;;;;;;;;;;4957306;28;20655;-90
2023/04/23 15:25:39;;;;;;;6.77;6.27;;;;;;;;;;5067419;23;20683;-89
2023/04/23 15:28:08;;;;;;;6.70;6.40;;;;;;;;;;4967287;29;20674;-88
2023/04/23 15:30:38;;;;;;;6.47;6.27;;;;;;;;;;4948888;28;20680;-88
2023/04/23 15:33:08;;;;;;;7.30;7.00;;;;;;;;;;4972922;28;20692;-88
2023/04/23 15:39:05;;;;;;;16.70;2.57;;;;;;;;;;4985633;23;20682;-69
2023/04/23 15:41:33;;;;;;;6.13;3.10;;;;;;;;;;4952936;29;21172;-72
2023/04/23 15:44:02;;;;;;;4.47;2.50;;;;;;;;;;4956826;29;20767;-70
2023/04/23 15:46:30;;;;;;;8.43;4.23;;;;;;;;;;4949488;29;21217;-71
2023/04/23 15:49:00;;;;;;;6.00;3.30;;;;;;;;;;4952492;29;20587;-69
2023/04/23 15:51:28;;;;;;;12.47;2.93;;;;;;;;;;4952616;29;20610;-69